Longworth, Texas
Current Conditions -  °F | °C
As of 4:15 AM on Wednesday 26 Nov 2014 (Local Time) from KSWW Reporting Station
Clear Clear  
Wind Chill: 39°   Ceiling: Unl
Heat Index: 46°   Visibility: 10mi
Dew Point: 16°   Wind: 15mph
Humidity: 30%   Direction: 230°SW
Pressure: 30.11"   Gusts: NA
Location:  32.6787°N, 100.492°W
Report Text: KSWW 261015Z AUTO 23013KT 10SM CLR 08/M09 A3011 RMK AO2 T00751091
Loading
Personal Weather Stations






























Interactive Weather Map New forecast layout! Learn more

10-Day Weather Forecast

Advertisements
Track Severe Weather on mobile